createdAt,value
2022-11-29T00:01:42.210Z,8.90
2022-11-29T00:04:11.002Z,8.90
2022-11-29T00:06:40.055Z,8.90
2022-11-29T00:09:11.686Z,8.80
2022-11-29T00:11:58.318Z,8.80
2022-11-29T00:14:27.619Z,8.80
2022-11-29T00:17:02.137Z,8.80
2022-11-29T00:19:31.459Z,8.80
2022-11-29T00:21:59.835Z,8.80
2022-11-29T00:24:28.175Z,8.80
2022-11-29T00:26:56.300Z,8.80
2022-11-29T00:29:24.521Z,8.80
2022-11-29T00:31:52.984Z,8.80
2022-11-29T00:34:22.535Z,8.80
2022-11-29T00:36:50.731Z,8.80
2022-11-29T00:39:18.891Z,8.80
2022-11-29T00:41:47.157Z,8.80
2022-11-29T00:44:19.864Z,8.70
2022-11-29T00:46:48.821Z,8.70
2022-11-29T00:49:17.018Z,8.70
2022-11-29T00:51:46.670Z,8.70
2022-11-29T00:54:14.848Z,8.70
2022-11-29T00:56:42.995Z,8.80
2022-11-29T00:59:11.214Z,8.80
2022-11-29T01:01:39.464Z,8.80
2022-11-29T01:04:07.635Z,8.80
2022-11-29T01:06:35.821Z,8.80
2022-11-29T01:09:05.944Z,8.80
2022-11-29T01:11:34.899Z,8.80
2022-11-29T01:14:04.235Z,8.80
2022-11-29T01:16:33.241Z,8.70
2022-11-29T01:19:02.655Z,8.70
2022-11-29T01:21:31.582Z,8.60
2022-11-29T01:24:00.802Z,8.60
2022-11-29T01:26:31.923Z,8.60
2022-11-29T01:29:00.958Z,8.60
2022-11-29T01:31:31.565Z,8.60
2022-11-29T01:34:03.051Z,8.60
2022-11-29T01:36:31.287Z,8.70
2022-11-29T01:39:00.384Z,8.60
2022-11-29T01:41:31.544Z,8.60
2022-11-29T01:44:02.873Z,8.60
2022-11-29T01:46:32.012Z,8.60
2022-11-29T01:49:04.337Z,8.60
2022-11-29T01:51:34.641Z,8.60
2022-11-29T01:54:02.983Z,8.60
2022-11-29T01:56:35.882Z,8.60
2022-11-29T01:59:09.338Z,8.60
2022-11-29T02:01:38.496Z,8.60
2022-11-29T02:04:08.130Z,8.60
2022-11-29T02:06:37.019Z,8.50
2022-11-29T02:09:05.876Z,8.50
2022-11-29T02:12:05.234Z,8.50
2022-11-29T02:14:49.579Z,8.40
2022-11-29T02:17:26.615Z,8.40
2022-11-29T02:20:32.862Z,8.40
2022-11-29T02:23:08.662Z,8.40
2022-11-29T02:25:58.555Z,8.40
2022-11-29T02:28:58.661Z,8.40
2022-11-29T02:32:01.510Z,8.50
2022-11-29T02:34:54.306Z,8.50
2022-11-29T02:37:57.642Z,8.50
2022-11-29T02:40:48.739Z,8.50
2022-11-29T02:43:51.850Z,8.50
2022-11-29T02:46:43.212Z,8.50
2022-11-29T02:49:19.959Z,8.50
2022-11-29T02:51:55.160Z,8.60
2022-11-29T02:54:29.598Z,8.60
2022-11-29T02:57:03.242Z,8.50
2022-11-29T02:59:41.700Z,8.60
2022-11-29T03:02:21.228Z,8.50
2022-11-29T03:04:56.625Z,8.50
2022-11-29T03:07:32.826Z,8.50
2022-11-29T03:10:09.354Z,8.40
2022-11-29T03:12:42.296Z,8.40
2022-11-29T03:15:23.863Z,8.40
2022-11-29T03:18:03.146Z,8.40
2022-11-29T03:20:42.725Z,8.40
2022-11-29T03:23:20.772Z,8.40
2022-11-29T03:25:57.006Z,8.40
2022-11-29T03:28:32.341Z,8.30
2022-11-29T03:31:05.852Z,8.40
2022-11-29T03:33:43.912Z,8.40
2022-11-29T03:36:19.819Z,8.40
2022-11-29T03:38:49.777Z,8.40
2022-11-29T03:41:24.254Z,8.40
2022-11-29T03:43:58.533Z,8.40
2022-11-29T03:46:34.415Z,8.30
2022-11-29T03:49:05.406Z,8.30
2022-11-29T03:51:48.182Z,8.30
2022-11-29T03:54:23.419Z,8.20
2022-11-29T03:56:51.974Z,8.20
2022-11-29T03:59:31.298Z,8.20
2022-11-29T04:02:43.741Z,8.20
2022-11-29T04:05:38.622Z,8.20
2022-11-29T04:08:42.834Z,8.20
2022-11-29T04:11:55.763Z,8.20
2022-11-29T04:14:35.707Z,8.10
2022-11-29T04:17:37.051Z,8.20
2022-11-29T04:20:27.320Z,8.20
2022-11-29T04:23:34.024Z,8.20
2022-11-29T04:26:35.034Z,8.10
2022-11-29T04:29:39.394Z,8.10
2022-11-29T04:32:28.668Z,8.00
2022-11-29T04:35:31.345Z,8.00
2022-11-29T04:38:17.655Z,7.90
2022-11-29T04:41:03.656Z,8.00
2022-11-29T04:43:59.954Z,7.90
2022-11-29T04:47:01.679Z,7.90
2022-11-29T04:49:58.603Z,7.90
2022-11-29T04:52:57.938Z,7.90
2022-11-29T04:55:39.011Z,7.90
2022-11-29T04:58:19.412Z,7.90
2022-11-29T05:00:57.165Z,7.90
2022-11-29T05:03:38.432Z,7.90
2022-11-29T05:06:20.877Z,7.80
2022-11-29T05:08:57.318Z,7.80
2022-11-29T05:11:36.449Z,7.80
2022-11-29T05:14:12.076Z,7.70
2022-11-29T05:16:54.719Z,7.60
2022-11-29T05:19:49.169Z,7.60
2022-11-29T05:22:29.775Z,7.50
2022-11-29T05:25:06.926Z,7.40
2022-11-29T05:27:45.977Z,7.40
2022-11-29T05:30:16.253Z,7.30
2022-11-29T05:32:57.735Z,7.30
2022-11-29T05:35:59.267Z,7.30
2022-11-29T05:38:53.408Z,7.30
2022-11-29T05:41:37.673Z,7.20
2022-11-29T05:44:11.496Z,7.20
2022-11-29T05:46:50.741Z,7.10
2022-11-29T05:49:28.072Z,7.10
2022-11-29T05:52:05.167Z,7.10
2022-11-29T05:54:38.747Z,7.10
2022-11-29T05:57:16.374Z,7.00
2022-11-29T05:59:48.706Z,7.00
2022-11-29T06:02:34.242Z,7.00
2022-11-29T06:05:08.872Z,6.90
2022-11-29T06:07:45.796Z,6.90
2022-11-29T06:10:17.872Z,6.90
2022-11-29T06:12:54.981Z,6.80
2022-11-29T06:15:48.619Z,6.80
2022-11-29T06:18:36.291Z,6.80
2022-11-29T06:21:16.509Z,6.70
2022-11-29T06:24:06.045Z,6.70
2022-11-29T06:27:02.348Z,6.70
2022-11-29T06:29:37.564Z,6.70
2022-11-29T06:32:17.898Z,6.60
2022-11-29T06:34:55.279Z,6.60
2022-11-29T06:37:28.611Z,6.50
2022-11-29T06:39:57.475Z,6.50
2022-11-29T06:42:26.991Z,6.50
2022-11-29T06:44:55.764Z,6.50
2022-11-29T06:47:29.752Z,6.40
2022-11-29T06:50:04.449Z,6.50
2022-11-29T06:52:46.379Z,6.40
2022-11-29T06:55:20.839Z,6.30
2022-11-29T06:58:02.289Z,6.30
2022-11-29T07:00:39.699Z,6.30
2022-11-29T07:03:24.216Z,6.30
2022-11-29T07:05:53.182Z,6.30
2022-11-29T07:08:24.462Z,6.30
2022-11-29T07:10:55.676Z,6.30
2022-11-29T07:13:29.304Z,6.30
2022-11-29T07:16:08.321Z,6.20
2022-11-29T07:18:44.653Z,6.20
2022-11-29T07:21:20.668Z,6.10
2022-11-29T07:23:58.536Z,6.10
2022-11-29T07:26:36.407Z,6.10
2022-11-29T07:29:21.685Z,6.10
2022-11-29T07:31:59.887Z,6.10
2022-11-29T07:34:41.574Z,6.10
2022-11-29T07:37:16.762Z,6.20
2022-11-29T07:39:55.056Z,6.30
2022-11-29T07:42:28.153Z,6.30
2022-11-29T07:45:10.017Z,6.30
2022-11-29T07:47:38.197Z,6.30
2022-11-29T07:50:10.045Z,6.30
2022-11-29T07:52:38.314Z,6.30
2022-11-29T07:55:18.466Z,6.40
2022-11-29T07:57:47.414Z,6.40
2022-11-29T08:00:18.516Z,6.50
2022-11-29T08:02:49.243Z,6.60
2022-11-29T08:05:17.831Z,6.60
2022-11-29T08:07:46.508Z,6.70
2022-11-29T08:10:16.786Z,6.80
2022-11-29T08:12:46.590Z,6.80
2022-11-29T08:15:16.685Z,6.80
2022-11-29T08:17:45.145Z,6.90
2022-11-29T08:20:14.430Z,6.90
2022-11-29T08:22:42.744Z,6.90
2022-11-29T08:25:12.414Z,6.90
2022-11-29T08:27:40.759Z,7.00
2022-11-29T08:30:09.999Z,7.00
2022-11-29T08:32:39.596Z,6.90
2022-11-29T08:35:08.048Z,7.00
2022-11-29T08:37:37.222Z,7.00
2022-11-29T08:40:05.803Z,7.10
2022-11-29T08:42:33.992Z,7.10
2022-11-29T08:45:02.147Z,7.30
2022-11-29T08:47:39.056Z,7.40
2022-11-29T08:50:12.437Z,7.50
2022-11-29T08:52:59.581Z,7.60
2022-11-29T08:55:31.824Z,7.80
2022-11-29T08:58:04.158Z,7.90
2022-11-29T09:00:32.957Z,8.00
2022-11-29T09:03:16.772Z,8.10
2022-11-29T09:05:46.289Z,8.10
2022-11-29T09:08:14.520Z,8.10
2022-11-29T09:10:42.974Z,8.10
2022-11-29T09:13:12.361Z,8.10
2022-11-29T09:15:43.613Z,8.10
2022-11-29T09:18:12.124Z,8.10
2022-11-29T09:20:43.703Z,8.30
2022-11-29T09:23:14.039Z,8.40
2022-11-29T09:25:42.191Z,8.50
2022-11-29T09:28:11.542Z,8.70
2022-11-29T09:30:39.718Z,8.80
2022-11-29T09:33:07.923Z,8.90
2022-11-29T09:35:36.162Z,8.90
2022-11-29T09:38:04.316Z,8.90
2022-11-29T09:40:44.009Z,9.00
2022-11-29T09:43:23.281Z,9.10
2022-11-29T09:45:57.129Z,9.20
2022-11-29T09:49:08.621Z,9.30
2022-11-29T09:51:47.618Z,9.30
2022-11-29T09:54:25.556Z,9.10
2022-11-29T09:56:57.861Z,9.00
2022-11-29T09:59:30.169Z,9.00
2022-11-29T10:02:04.388Z,9.10
2022-11-29T10:04:37.655Z,9.10
2022-11-29T10:07:10.814Z,9.30
2022-11-29T10:09:45.127Z,9.20
2022-11-29T10:12:21.090Z,9.30
2022-11-29T10:14:56.107Z,9.30
2022-11-29T10:17:35.776Z,9.40
2022-11-29T10:20:11.214Z,9.40
2022-11-29T10:22:45.028Z,9.40
2022-11-29T10:25:21.399Z,9.40
2022-11-29T10:27:51.008Z,9.20
2022-11-29T10:30:19.897Z,9.10
2022-11-29T10:32:51.960Z,9.00
2022-11-29T10:35:21.858Z,9.10
2022-11-29T10:38:14.470Z,9.10
2022-11-29T10:40:43.477Z,9.10
2022-11-29T10:43:13.259Z,9.20
2022-11-29T10:45:45.993Z,9.20
2022-11-29T10:48:17.310Z,9.30
2022-11-29T10:50:48.710Z,9.30
2022-11-29T10:53:19.060Z,9.20
2022-11-29T10:55:50.646Z,9.30
2022-11-29T10:58:27.935Z,9.30
2022-11-29T11:00:59.465Z,9.30
2022-11-29T11:03:38.402Z,9.30
2022-11-29T11:06:15.604Z,9.30
2022-11-29T11:08:46.979Z,9.20
2022-11-29T11:11:16.090Z,9.30
2022-11-29T11:13:58.082Z,9.40
2022-11-29T11:16:27.074Z,9.40
2022-11-29T11:18:57.662Z,9.30
2022-11-29T11:21:30.409Z,9.30
2022-11-29T11:24:02.266Z,9.40
2022-11-29T11:26:44.200Z,9.40
2022-11-29T11:29:19.918Z,9.40
2022-11-29T11:31:57.640Z,9.50
2022-11-29T11:34:34.203Z,9.40
2022-11-29T11:37:22.676Z,9.50
2022-11-29T11:39:53.343Z,9.50
2022-11-29T11:42:39.209Z,9.40
2022-11-29T11:45:33.508Z,9.30
2022-11-29T11:48:05.716Z,9.30
2022-11-29T11:50:37.649Z,9.30
2022-11-29T11:53:08.722Z,9.30
2022-11-29T11:55:40.521Z,9.30
2022-11-29T11:58:21.095Z,9.30
2022-11-29T12:01:07.858Z,9.30
2022-11-29T12:03:51.968Z,9.30
2022-11-29T12:06:44.962Z,9.40
2022-11-29T12:09:19.728Z,9.30
2022-11-29T12:11:56.328Z,9.30
2022-11-29T12:14:33.851Z,9.20
2022-11-29T12:17:18.473Z,9.30
2022-11-29T12:19:58.154Z,9.30
2022-11-29T12:22:32.045Z,9.30
2022-11-29T12:25:05.451Z,9.40
2022-11-29T12:27:33.740Z,9.40
2022-11-29T12:30:01.912Z,9.40
2022-11-29T12:32:43.766Z,9.20
2022-11-29T12:35:45.996Z,9.10
2022-11-29T12:38:31.023Z,8.90
2022-11-29T12:41:07.868Z,9.10
2022-11-29T12:43:49.544Z,9.20
2022-11-29T12:46:25.961Z,9.10
2022-11-29T12:49:05.411Z,9.20
2022-11-29T12:51:43.531Z,9.10
2022-11-29T12:54:41.595Z,9.10
2022-11-29T12:57:18.818Z,9.20
2022-11-29T13:00:05.715Z,9.10
2022-11-29T13:02:48.625Z,9.10
2022-11-29T13:05:26.911Z,9.20
2022-11-29T13:08:08.251Z,9.00
2022-11-29T13:10:49.544Z,8.90
2022-11-29T13:13:30.090Z,8.80
2022-11-29T13:16:04.681Z,8.70
2022-11-29T13:18:39.571Z,8.80
2022-11-29T13:21:14.436Z,8.80
2022-11-29T13:26:40.784Z,8.70
2022-11-29T13:29:15.754Z,8.80
2022-11-29T13:31:44.993Z,8.90
2022-11-29T13:34:20.862Z,8.80
2022-11-29T13:37:01.318Z,8.70
2022-11-29T13:39:39.940Z,8.70
2022-11-29T13:42:17.950Z,8.70
2022-11-29T13:44:51.959Z,8.80
2022-11-29T13:47:20.982Z,8.80
2022-11-29T13:49:58.598Z,8.80
2022-11-29T13:52:40.701Z,8.70
2022-11-29T13:55:23.543Z,8.60
2022-11-29T13:58:16.945Z,8.60
2022-11-29T14:00:54.059Z,8.50
2022-11-29T14:03:31.395Z,8.50
2022-11-29T14:06:32.766Z,8.50
2022-11-29T14:09:25.092Z,8.50
2022-11-29T14:12:03.067Z,8.40
2022-11-29T14:14:37.294Z,8.60
2022-11-29T14:17:07.190Z,8.60
2022-11-29T14:19:36.931Z,8.60
2022-11-29T14:22:22.805Z,8.60
2022-11-29T14:25:21.751Z,8.60
2022-11-29T14:28:01.696Z,8.70
2022-11-29T14:30:50.278Z,8.70
2022-11-29T14:33:43.952Z,8.70
2022-11-29T14:36:38.310Z,8.60
2022-11-29T14:39:23.807Z,8.60
2022-11-29T14:42:02.324Z,8.60
2022-11-29T14:44:32.992Z,8.60
2022-11-29T14:47:05.056Z,8.70
2022-11-29T14:49:39.728Z,8.70
2022-11-29T14:52:19.314Z,8.70
2022-11-29T14:54:56.962Z,8.70
2022-11-29T14:57:56.207Z,8.80
2022-11-29T15:00:26.033Z,8.80
2022-11-29T15:02:57.924Z,8.70
2022-11-29T15:05:33.604Z,8.80
2022-11-29T15:08:09.933Z,8.80
2022-11-29T15:10:43.923Z,8.80
2022-11-29T15:13:17.501Z,8.80
2022-11-29T15:16:19.617Z,8.80
2022-11-29T15:19:20.637Z,8.80
2022-11-29T15:21:57.763Z,8.80
2022-11-29T15:24:28.779Z,8.80
2022-11-29T15:26:58.261Z,8.80
2022-11-29T15:29:28.686Z,8.80
2022-11-29T15:31:59.915Z,8.80
2022-11-29T15:34:33.492Z,8.80
2022-11-29T15:37:02.368Z,8.80
2022-11-29T15:39:32.953Z,8.80
2022-11-29T15:42:02.774Z,8.80
2022-11-29T15:44:33.844Z,8.80
2022-11-29T15:47:22.198Z,8.80
2022-11-29T15:49:50.861Z,8.80
2022-11-29T15:52:28.456Z,8.70
2022-11-29T15:55:00.644Z,8.70
2022-11-29T15:57:33.926Z,8.60
2022-11-29T16:00:07.133Z,8.60
2022-11-29T16:02:37.829Z,8.60
2022-11-29T16:05:17.395Z,8.60
2022-11-29T16:07:47.193Z,8.60
2022-11-29T16:10:19.452Z,8.60
2022-11-29T16:12:55.581Z,8.50
2022-11-29T16:15:33.332Z,8.40
2022-11-29T16:18:05.464Z,8.60
2022-11-29T16:20:33.835Z,8.60
2022-11-29T16:23:16.213Z,8.60
2022-11-29T16:25:54.350Z,8.60
2022-11-29T16:28:22.688Z,8.60
2022-11-29T16:30:52.595Z,8.60
2022-11-29T16:33:24.924Z,8.50
2022-11-29T16:36:03.810Z,8.50
2022-11-29T16:38:32.005Z,8.60
2022-11-29T16:41:05.977Z,8.50
2022-11-29T16:43:58.388Z,8.50
2022-11-29T16:46:39.187Z,8.50
2022-11-29T16:49:34.213Z,8.50
2022-11-29T16:52:03.308Z,8.50
2022-11-29T16:54:34.389Z,8.50
2022-11-29T16:57:06.352Z,8.50
2022-11-29T16:59:35.424Z,8.50
2022-11-29T17:02:07.325Z,8.60
2022-11-29T17:04:35.524Z,8.60
2022-11-29T17:07:03.841Z,8.60
2022-11-29T17:09:34.276Z,8.60
2022-11-29T17:12:03.455Z,8.60
2022-11-29T17:14:33.414Z,8.60
2022-11-29T17:17:01.609Z,8.60
2022-11-29T17:19:31.795Z,8.60
2022-11-29T17:22:00.494Z,8.60
2022-11-29T17:24:28.635Z,8.50
2022-11-29T17:26:56.942Z,8.50
2022-11-29T17:29:25.157Z,8.60
2022-11-29T17:31:53.559Z,8.60
2022-11-29T17:34:21.887Z,8.50
2022-11-29T17:36:51.986Z,8.50
2022-11-29T17:39:21.635Z,8.60
2022-11-29T17:41:49.835Z,8.50
2022-11-29T17:44:18.053Z,8.50
2022-11-29T17:46:46.224Z,8.50
2022-11-29T17:49:14.404Z,8.60
2022-11-29T17:51:52.112Z,8.60
2022-11-29T17:54:23.084Z,8.60
2022-11-29T17:56:52.537Z,8.60
2022-11-29T17:59:20.683Z,8.60
2022-11-29T18:01:49.163Z,8.60
2022-11-29T18:04:17.408Z,8.70
2022-11-29T18:06:49.781Z,8.70
2022-11-29T18:09:19.385Z,8.70
2022-11-29T18:11:50.440Z,8.70
2022-11-29T18:14:21.045Z,8.60
2022-11-29T18:16:49.625Z,8.70
2022-11-29T18:19:19.747Z,8.60
2022-11-29T18:21:48.185Z,8.60
2022-11-29T18:24:16.448Z,8.60
2022-11-29T18:26:45.023Z,8.70
2022-11-29T18:29:14.720Z,8.60
2022-11-29T18:31:45.000Z,8.70
2022-11-29T18:34:14.602Z,8.60
2022-11-29T18:36:44.362Z,8.60
2022-11-29T18:39:15.097Z,8.60
2022-11-29T18:41:44.793Z,8.60
2022-11-29T18:44:15.489Z,8.60
2022-11-29T18:46:45.166Z,8.60
2022-11-29T18:49:15.388Z,8.60
2022-11-29T18:51:45.921Z,8.60
2022-11-29T18:54:15.005Z,8.60
2022-11-29T18:56:44.236Z,8.60
2022-11-29T18:59:16.759Z,8.60
2022-11-29T19:01:48.220Z,8.60
2022-11-29T19:04:18.528Z,8.50
2022-11-29T19:06:47.179Z,8.50
2022-11-29T19:09:17.301Z,8.50
2022-11-29T19:11:45.723Z,8.50
2022-11-29T19:14:15.332Z,8.40
2022-11-29T19:16:46.193Z,8.40
2022-11-29T19:19:14.645Z,8.40
2022-11-29T19:21:43.285Z,8.40
2022-11-29T19:24:17.749Z,8.50
2022-11-29T19:26:47.871Z,8.40
2022-11-29T19:29:17.919Z,8.40
2022-11-29T19:31:46.506Z,8.40
2022-11-29T19:34:15.223Z,8.40
2022-11-29T19:37:09.441Z,8.40
2022-11-29T19:39:40.656Z,8.40
2022-11-29T19:42:11.098Z,8.40
2022-11-29T19:47:44.524Z,8.40
2022-11-29T19:50:12.745Z,8.40
2022-11-29T19:52:40.874Z,8.40
2022-11-29T19:55:09.861Z,8.40
2022-11-29T19:57:38.452Z,8.40
2022-11-29T20:00:09.788Z,8.40
2022-11-29T20:02:37.989Z,8.40
2022-11-29T20:05:07.174Z,8.50
2022-11-29T20:07:35.486Z,8.40
2022-11-29T20:10:08.207Z,8.40
2022-11-29T20:12:36.425Z,8.40
2022-11-29T20:15:07.476Z,8.30
2022-11-29T20:17:37.015Z,8.40
2022-11-29T20:20:05.895Z,8.40
2022-11-29T20:22:37.269Z,8.40
2022-11-29T20:25:06.756Z,8.30
2022-11-29T20:27:34.934Z,8.30
2022-11-29T20:30:03.450Z,8.30
2022-11-29T20:32:51.179Z,8.30
2022-11-29T20:35:23.015Z,8.30
2022-11-29T20:38:12.185Z,8.10
2022-11-29T20:40:51.090Z,8.10
2022-11-29T20:43:23.734Z,8.10
2022-11-29T20:45:52.256Z,8.20
2022-11-29T20:48:24.077Z,8.10
2022-11-29T20:50:57.670Z,8.20
2022-11-29T20:53:35.265Z,8.10
2022-11-29T20:56:05.953Z,8.20
2022-11-29T20:58:36.725Z,8.30
2022-11-29T21:01:11.445Z,8.30
2022-11-29T21:07:58.692Z,8.30
2022-11-29T21:10:29.534Z,8.40
2022-11-29T21:15:51.423Z,8.40
2022-11-29T21:18:26.701Z,8.40
2022-11-29T21:21:21.310Z,8.40
2022-11-29T21:24:10.150Z,8.40
2022-11-29T21:26:44.969Z,8.50
2022-11-29T21:29:18.233Z,8.50
2022-11-29T21:31:47.299Z,8.50
2022-11-29T21:34:15.754Z,8.50
2022-11-29T21:36:45.707Z,8.50
2022-11-29T21:39:17.541Z,8.50
2022-11-29T21:41:46.340Z,8.40
2022-11-29T21:44:14.660Z,8.40
2022-11-29T21:46:42.879Z,8.30
2022-11-29T21:49:11.150Z,8.30
2022-11-29T21:51:41.141Z,8.30
2022-11-29T21:54:09.349Z,8.30
2022-11-29T21:56:38.944Z,8.30
2022-11-29T21:59:07.156Z,8.30
2022-11-29T22:01:35.484Z,8.30
2022-11-29T22:04:04.240Z,8.30
2022-11-29T22:06:34.439Z,8.30
2022-11-29T22:09:02.709Z,8.30
2022-11-29T22:11:34.488Z,8.30
2022-11-29T22:14:18.409Z,8.30
2022-11-29T22:16:49.042Z,8.20
2022-11-29T22:19:18.622Z,8.30
2022-11-29T22:21:48.036Z,8.20
2022-11-29T22:24:17.418Z,8.30
2022-11-29T22:26:48.045Z,8.30
2022-11-29T22:29:17.580Z,8.30
2022-11-29T22:31:47.632Z,8.30
2022-11-29T22:34:15.984Z,8.30
2022-11-29T22:36:44.316Z,8.30
2022-11-29T22:39:16.265Z,8.30
2022-11-29T22:41:48.055Z,8.30
2022-11-29T22:44:20.348Z,8.30
2022-11-29T22:46:48.613Z,8.30
2022-11-29T22:49:16.822Z,8.30
2022-11-29T22:51:44.973Z,8.30
2022-11-29T22:54:15.465Z,8.30
2022-11-29T22:56:45.060Z,8.30
2022-11-29T22:59:13.245Z,8.30
2022-11-29T23:01:43.495Z,8.30
2022-11-29T23:04:13.253Z,8.30
2022-11-29T23:06:43.762Z,8.20
2022-11-29T23:09:16.611Z,8.20
2022-11-29T23:11:45.911Z,8.20
2022-11-29T23:14:14.565Z,8.30
2022-11-29T23:16:44.318Z,8.30
2022-11-29T23:19:12.886Z,8.30
2022-11-29T23:21:42.038Z,8.30
2022-11-29T23:24:10.500Z,8.30
2022-11-29T23:26:40.726Z,8.30
2022-11-29T23:29:10.730Z,8.40
2022-11-29T23:31:39.191Z,8.30
2022-11-29T23:34:08.876Z,8.40
2022-11-29T23:36:37.048Z,8.40
2022-11-29T23:39:06.643Z,8.40
2022-11-29T23:41:35.264Z,8.30
2022-11-29T23:44:04.531Z,8.30
2022-11-29T23:46:32.810Z,8.30
2022-11-29T23:49:00.999Z,8.30
2022-11-29T23:51:30.546Z,8.30
2022-11-29T23:53:58.639Z,8.30
2022-11-29T23:56:35.696Z,8.30
2022-11-29T23:59:04.448Z,8.30
